createdAt,value
2019-05-03T00:02:05.800Z,10.00
2019-05-03T00:07:07.293Z,10.00
2019-05-03T00:12:08.382Z,10.00
2019-05-03T00:17:11.609Z,10.10
2019-05-03T00:22:12.665Z,10.10
2019-05-03T00:27:13.859Z,10.10
2019-05-03T00:32:15.055Z,10.10
2019-05-03T00:37:22.085Z,10.10
2019-05-03T00:42:23.908Z,10.00
2019-05-03T00:47:25.023Z,10.10
2019-05-03T00:52:26.130Z,10.00
2019-05-03T00:57:28.844Z,10.10
2019-05-03T01:02:31.662Z,10.20
2019-05-03T01:07:32.938Z,10.10
2019-05-03T01:12:34.015Z,10.20
2019-05-03T01:17:35.612Z,10.20
2019-05-03T01:22:36.707Z,10.10
2019-05-03T01:27:37.798Z,10.20
2019-05-03T01:32:38.891Z,10.20
2019-05-03T01:37:39.984Z,10.10
2019-05-03T01:42:42.581Z,10.10
2019-05-03T01:47:52.599Z,10.00
2019-05-03T01:52:55.778Z,10.10
2019-05-03T01:57:56.870Z,10.00
2019-05-03T02:03:01.557Z,10.10
2019-05-03T02:08:03.072Z,10.10
2019-05-03T02:13:04.493Z,10.00
2019-05-03T02:18:05.775Z,10.00
2019-05-03T02:23:06.887Z,9.90
2019-05-03T02:28:07.967Z,9.90
2019-05-03T02:33:09.059Z,9.90
2019-05-03T02:38:12.810Z,9.90
2019-05-03T02:43:25.971Z,10.10
2019-05-03T02:48:45.962Z,9.80
2019-05-03T02:53:47.172Z,9.80
2019-05-03T02:58:48.366Z,9.80
2019-05-03T03:03:49.529Z,9.80
2019-05-03T03:08:51.815Z,9.90
2019-05-03T03:13:55.620Z,9.90
2019-05-03T03:19:00.524Z,9.80
2019-05-03T03:24:11.180Z,9.80
2019-05-03T03:29:16.167Z,9.80
2019-05-03T03:34:21.131Z,9.80
2019-05-03T03:39:22.388Z,9.80
2019-05-03T03:44:25.626Z,9.80
2019-05-03T03:49:28.276Z,9.80
2019-05-03T03:54:32.110Z,9.70
2019-05-03T03:59:36.378Z,9.70
2019-05-03T04:04:37.284Z,9.70
2019-05-03T04:09:38.977Z,9.70
2019-05-03T04:14:51.223Z,9.70
2019-05-03T04:19:55.916Z,9.60
2019-05-03T04:24:57.507Z,9.60
2019-05-03T04:29:59.111Z,9.70
2019-05-03T04:35:00.208Z,9.70
2019-05-03T04:40:01.507Z,9.70
2019-05-03T04:45:05.856Z,9.80
2019-05-03T04:50:07.429Z,9.80
2019-05-03T04:55:08.712Z,9.80
2019-05-03T05:00:11.576Z,9.70
2019-05-03T05:05:15.359Z,9.80
2019-05-03T05:10:16.117Z,9.70
2019-05-03T05:15:19.411Z,9.70
2019-05-03T05:20:39.086Z,9.70
2019-05-03T05:25:42.109Z,9.60
2019-05-03T05:30:44.431Z,9.70
2019-05-03T05:35:45.711Z,9.80
2019-05-03T05:40:46.923Z,10.00
2019-05-03T05:45:48.124Z,10.20
2019-05-03T05:50:49.235Z,10.40
2019-05-03T05:56:08.807Z,10.40
2019-05-03T06:01:17.835Z,10.40
2019-05-03T06:06:24.641Z,10.40
2019-05-03T06:11:27.652Z,10.50
2019-05-03T06:16:45.053Z,10.60
2019-05-03T06:21:48.003Z,10.50
2019-05-03T06:26:51.059Z,10.40
2019-05-03T06:32:09.374Z,10.30
2019-05-03T06:37:15.097Z,10.30
2019-05-03T06:42:19.249Z,10.30
2019-05-03T06:47:19.726Z,10.30
2019-05-03T06:52:27.574Z,10.30
2019-05-03T06:57:25.362Z,10.10
2019-05-03T07:02:31.522Z,9.90
2019-05-03T07:07:46.559Z,9.70
2019-05-03T07:13:08.774Z,9.60
2019-05-03T07:18:08.733Z,9.50
2019-05-03T07:23:09.975Z,9.50
2019-05-03T07:28:11.096Z,9.40
2019-05-03T07:33:15.079Z,9.40
2019-05-03T07:38:16.313Z,9.60
2019-05-03T07:43:18.888Z,9.70
2019-05-03T07:48:20.308Z,9.90
2019-05-03T07:53:21.426Z,9.90
2019-05-03T07:58:29.979Z,10.20
2019-05-03T08:03:31.065Z,10.40
2019-05-03T08:08:32.165Z,10.40
2019-05-03T08:13:35.373Z,10.60
2019-05-03T08:18:36.264Z,10.90
2019-05-03T08:23:37.450Z,10.70
2019-05-03T08:28:38.541Z,10.50
2019-05-03T08:33:44.828Z,10.40
2019-05-03T08:38:46.091Z,10.20
2019-05-03T08:43:47.192Z,10.10
2019-05-03T08:48:48.284Z,10.40
2019-05-03T08:53:49.394Z,10.80
2019-05-03T08:58:52.672Z,11.10
2019-05-03T09:03:55.617Z,11.10
2019-05-03T09:08:57.348Z,11.10
2019-05-03T09:14:04.576Z,11.10
2019-05-03T09:19:05.950Z,11.30
2019-05-03T09:24:07.089Z,12.00
2019-05-03T09:29:08.200Z,12.70
2019-05-03T09:34:09.296Z,13.00
2019-05-03T09:39:10.393Z,13.00
2019-05-03T09:44:11.488Z,13.30
2019-05-03T09:49:14.483Z,13.90
2019-05-03T09:54:20.312Z,14.00
2019-05-03T09:59:21.414Z,14.20
2019-05-03T10:04:22.861Z,14.20
2019-05-03T10:09:26.098Z,14.50
2019-05-03T10:14:27.229Z,14.70
2019-05-03T10:19:37.607Z,14.40
2019-05-03T10:24:31.531Z,14.30
2019-05-03T10:29:32.860Z,14.30
2019-05-03T10:34:35.693Z,14.40
2019-05-03T10:39:36.953Z,13.90
2019-05-03T10:44:38.098Z,13.40
2019-05-03T10:49:39.252Z,13.40
2019-05-03T10:54:40.375Z,13.50
2019-05-03T10:59:41.583Z,13.80
2019-05-03T11:04:45.654Z,13.50
2019-05-03T11:09:49.606Z,12.70
2019-05-03T11:14:48.883Z,13.00
2019-05-03T11:19:50.001Z,13.00
2019-05-03T11:24:51.258Z,12.60
2019-05-03T11:29:52.459Z,12.70
2019-05-03T11:34:55.525Z,13.00
2019-05-03T11:39:56.685Z,13.80
2019-05-03T11:44:57.897Z,13.70
2019-05-03T11:49:58.985Z,13.60
2019-05-03T11:55:00.131Z,13.80
2019-05-03T12:00:01.423Z,14.20
2019-05-03T12:05:06.530Z,14.90
2019-05-03T12:10:17.226Z,15.10
2019-05-03T12:15:11.911Z,15.30
2019-05-03T12:20:16.740Z,14.90
2019-05-03T12:25:17.242Z,14.50
2019-05-03T12:30:18.943Z,14.80
2019-05-03T12:35:20.058Z,16.50
2019-05-03T12:40:21.159Z,20.30
2019-05-03T12:45:24.590Z,21.80
2019-05-03T12:50:25.480Z,23.10
2019-05-03T12:55:26.586Z,21.30
2019-05-03T13:00:32.633Z,18.80
2019-05-03T13:05:35.521Z,16.90
2019-05-03T13:10:36.768Z,15.10
2019-05-03T13:15:37.891Z,14.20
2019-05-03T13:20:39.091Z,13.50
2019-05-03T13:25:40.208Z,13.10
2019-05-03T13:30:41.339Z,12.70
2019-05-03T13:35:44.445Z,12.60
2019-05-03T13:40:45.476Z,12.60
2019-05-03T13:45:46.585Z,12.80
2019-05-03T13:50:47.684Z,13.30
2019-05-03T13:55:48.889Z,13.30
2019-05-03T14:00:51.287Z,13.30
2019-05-03T14:05:52.601Z,13.20
2019-05-03T14:10:55.537Z,13.20
2019-05-03T14:15:56.701Z,13.40
2019-05-03T14:20:59.803Z,13.70
2019-05-03T14:26:00.936Z,14.20
2019-05-03T14:31:02.069Z,14.30
2019-05-03T14:36:05.195Z,14.40
2019-05-03T14:41:06.273Z,14.50
2019-05-03T14:46:07.383Z,14.30
2019-05-03T14:51:08.511Z,14.40
2019-05-03T14:56:11.524Z,14.20
2019-05-03T15:01:15.494Z,14.10
2019-05-03T15:06:16.837Z,14.30
2019-05-03T15:11:17.958Z,14.70
2019-05-03T15:16:19.059Z,14.60
2019-05-03T15:21:20.272Z,14.20
2019-05-03T15:26:21.436Z,13.90
2019-05-03T15:31:24.443Z,13.70
2019-05-03T15:36:25.601Z,13.40
2019-05-03T15:41:26.726Z,13.20
2019-05-03T15:46:42.062Z,13.10
2019-05-03T15:51:44.586Z,13.20
2019-05-03T15:56:45.921Z,13.10
2019-05-03T16:01:47.226Z,12.90
2019-05-03T16:06:48.560Z,12.80
2019-05-03T16:11:50.082Z,12.80
2019-05-03T16:16:51.220Z,13.30
2019-05-03T16:21:54.375Z,12.60
2019-05-03T16:27:04.888Z,12.50
2019-05-03T16:32:06.021Z,12.40
2019-05-03T16:37:07.161Z,12.30
2019-05-03T16:42:08.353Z,12.20
2019-05-03T16:47:09.465Z,12.20
2019-05-03T16:52:18.381Z,12.10
2019-05-03T16:57:19.475Z,12.10
2019-05-03T17:02:20.704Z,11.90
2019-05-03T17:07:24.632Z,11.80
2019-05-03T17:12:34.813Z,11.70
2019-05-03T17:17:36.166Z,11.60
2019-05-03T17:22:37.309Z,11.50
2019-05-03T17:27:38.555Z,11.40
2019-05-03T17:32:39.681Z,11.30
2019-05-03T17:37:40.795Z,11.30
2019-05-03T17:43:00.345Z,11.20
2019-05-03T17:48:01.447Z,10.90
2019-05-03T17:53:10.520Z,10.60
2019-05-03T17:58:15.072Z,10.50
2019-05-03T18:03:17.583Z,10.40
2019-05-03T18:08:29.527Z,10.50
2019-05-03T18:13:32.652Z,10.40
2019-05-03T18:18:35.265Z,10.30
2019-05-03T18:23:36.557Z,10.20
2019-05-03T18:28:37.802Z,10.10
2019-05-03T18:33:38.911Z,10.00
2019-05-03T18:38:40.036Z,9.80
2019-05-03T18:43:55.399Z,9.80
2019-05-03T18:48:56.650Z,9.60
2019-05-03T18:53:57.810Z,9.50
2019-05-03T18:58:59.126Z,9.40
2019-05-03T19:04:14.680Z,9.40
2019-05-03T19:09:36.307Z,9.30
2019-05-03T19:14:37.611Z,9.60
2019-05-03T19:19:40.735Z,9.20
2019-05-03T19:24:41.894Z,9.10
2019-05-03T19:29:44.881Z,8.90
2019-05-03T19:34:51.009Z,8.90
2019-05-03T19:39:49.204Z,8.80
2019-05-03T19:44:50.305Z,8.60
2019-05-03T19:49:51.421Z,8.50
2019-05-03T19:54:52.536Z,8.40
2019-05-03T19:59:56.350Z,8.30
2019-05-03T20:05:15.982Z,8.30
2019-05-03T20:10:18.081Z,8.10
2019-05-03T20:15:19.692Z,8.00
2019-05-03T20:20:20.808Z,7.90
2019-05-03T20:25:21.940Z,7.90
2019-05-03T20:30:25.330Z,7.80
2019-05-03T20:35:26.354Z,7.70
2019-05-03T20:40:27.459Z,7.60
2019-05-03T20:45:36.272Z,7.50
2019-05-03T20:50:37.365Z,7.40
2019-05-03T20:55:38.490Z,7.30
2019-05-03T21:00:39.687Z,7.20
2019-05-03T21:05:40.885Z,7.30
2019-05-03T21:10:44.579Z,7.30
2019-05-03T21:15:50.720Z,7.30
2019-05-03T21:20:56.489Z,7.20
2019-05-03T21:26:12.472Z,7.30
2019-05-03T21:31:08.463Z,7.30
2019-05-03T21:36:09.597Z,7.30
2019-05-03T21:41:10.713Z,7.30
2019-05-03T21:46:16.759Z,7.40
2019-05-03T21:51:17.998Z,7.40
2019-05-03T21:56:19.091Z,7.40
2019-05-03T22:01:20.588Z,7.40
2019-05-03T22:06:21.787Z,7.50
2019-05-03T22:11:25.016Z,7.60
2019-05-03T22:16:30.571Z,7.70
2019-05-03T22:21:36.968Z,7.70
2019-05-03T22:26:52.505Z,7.70
2019-05-03T22:31:54.848Z,7.70
2019-05-03T22:36:56.301Z,7.70
2019-05-03T22:41:57.767Z,7.80
2019-05-03T22:46:58.859Z,7.70
2019-05-03T22:52:00.147Z,7.70
2019-05-03T22:57:01.243Z,7.70
2019-05-03T23:02:02.540Z,7.70
2019-05-03T23:07:05.460Z,7.70
2019-05-03T23:12:06.673Z,7.60
2019-05-03T23:17:07.782Z,7.50
2019-05-03T23:22:10.759Z,7.40
2019-05-03T23:27:11.875Z,7.40
2019-05-03T23:32:15.027Z,7.30
2019-05-03T23:37:16.172Z,7.20
2019-05-03T23:42:17.266Z,7.20
2019-05-03T23:47:25.097Z,7.40
2019-05-03T23:52:28.262Z,7.40
2019-05-03T23:57:29.455Z,7.40
